sensor_id;sensor_type;location;lat;lon;timestamp;temperature;humidity
24148;DHT22;12309;51.450;-2.624;2023-02-28T00:00:23;4.00;99.90
24148;DHT22;12309;51.450;-2.624;2023-02-28T00:02:49;4.90;99.90
24148;DHT22;12309;51.450;-2.624;2023-02-28T00:05:17;4.00;99.90
24148;DHT22;12309;51.450;-2.624;2023-02-28T00:07:43;4.00;99.90
24148;DHT22;12309;51.450;-2.624;2023-02-28T00:10:11;4.00;99.90
24148;DHT22;12309;51.450;-2.624;2023-02-28T00:12:37;3.90;99.90
24148;DHT22;12309;51.450;-2.624;2023-02-28T00:15:10;4.00;99.90
24148;DHT22;12309;51.450;-2.624;2023-02-28T00:17:36;3.90;99.90
24148;DHT22;12309;51.450;-2.624;2023-02-28T00:20:03;4.00;99.90
24148;DHT22;12309;51.450;-2.624;2023-02-28T00:22:42;3.90;99.90
24148;DHT22;12309;51.450;-2.624;2023-02-28T00:25:08;3.90;99.90
24148;DHT22;12309;51.450;-2.624;2023-02-28T00:27:35;3.90;99.90
24148;DHT22;12309;51.450;-2.624;2023-02-28T00:30:01;3.90;99.90
24148;DHT22;12309;51.450;-2.624;2023-02-28T00:32:27;3.90;99.90
24148;DHT22;12309;51.450;-2.624;2023-02-28T00:34:53;3.90;99.90
24148;DHT22;12309;51.450;-2.624;2023-02-28T00:37:18;3.90;99.90
24148;DHT22;12309;51.450;-2.624;2023-02-28T00:39:44;3.80;99.90
24148;DHT22;12309;51.450;-2.624;2023-02-28T00:42:09;3.70;99.90
24148;DHT22;12309;51.450;-2.624;2023-02-28T00:44:35;3.80;99.90
24148;DHT22;12309;51.450;-2.624;2023-02-28T00:47:01;3.80;99.90
24148;DHT22;12309;51.450;-2.624;2023-02-28T00:49:27;3.80;99.90
24148;DHT22;12309;51.450;-2.624;2023-02-28T00:51:54;3.70;99.90
24148;DHT22;12309;51.450;-2.624;2023-02-28T00:54:21;3.70;99.90
24148;DHT22;12309;51.450;-2.624;2023-02-28T00:56:47;3.70;99.90
24148;DHT22;12309;51.450;-2.624;2023-02-28T00:59:13;3.70;99.90
24148;DHT22;12309;51.450;-2.624;2023-02-28T01:01:40;3.80;99.90
24148;DHT22;12309;51.450;-2.624;2023-02-28T01:04:05;3.60;99.90
24148;DHT22;12309;51.450;-2.624;2023-02-28T01:06:32;3.60;99.90
24148;DHT22;12309;51.450;-2.624;2023-02-28T01:08:58;3.60;99.90
24148;DHT22;12309;51.450;-2.624;2023-02-28T01:11:24;3.80;99.90
24148;DHT22;12309;51.450;-2.624;2023-02-28T01:13:49;3.80;99.90
24148;DHT22;12309;51.450;-2.624;2023-02-28T01:16:15;3.90;99.90
24148;DHT22;12309;51.450;-2.624;2023-02-28T01:18:41;3.90;99.90
24148;DHT22;12309;51.450;-2.624;2023-02-28T01:21:11;4.00;99.90
24148;DHT22;12309;51.450;-2.624;2023-02-28T01:23:38;4.00;99.90
24148;DHT22;12309;51.450;-2.624;2023-02-28T01:26:08;4.10;99.90
24148;DHT22;12309;51.450;-2.624;2023-02-28T01:28:34;4.10;99.90
24148;DHT22;12309;51.450;-2.624;2023-02-28T01:31:00;4.00;99.90
24148;DHT22;12309;51.450;-2.624;2023-02-28T01:33:26;4.00;99.90
24148;DHT22;12309;51.450;-2.624;2023-02-28T01:35:59;4.00;99.90
24148;DHT22;12309;51.450;-2.624;2023-02-28T01:38:24;4.00;99.90
24148;DHT22;12309;51.450;-2.624;2023-02-28T01:40:50;3.90;99.90
24148;DHT22;12309;51.450;-2.624;2023-02-28T01:43:27;3.80;99.90
24148;DHT22;12309;51.450;-2.624;2023-02-28T01:45:53;3.80;99.90
24148;DHT22;12309;51.450;-2.624;2023-02-28T01:48:23;3.80;99.90
24148;DHT22;12309;51.450;-2.624;2023-02-28T01:50:52;3.80;99.90
24148;DHT22;12309;51.450;-2.624;2023-02-28T01:53:22;3.80;99.90
24148;DHT22;12309;51.450;-2.624;2023-02-28T01:55:50;4.00;99.90
24148;DHT22;12309;51.450;-2.624;2023-02-28T01:58:17;3.80;99.90
24148;DHT22;12309;51.450;-2.624;2023-02-28T02:00:43;3.80;99.90
24148;DHT22;12309;51.450;-2.624;2023-02-28T02:03:12;3.80;99.90
24148;DHT22;12309;51.450;-2.624;2023-02-28T02:05:39;3.80;99.90
24148;DHT22;12309;51.450;-2.624;2023-02-28T02:08:09;3.80;99.90
24148;DHT22;12309;51.450;-2.624;2023-02-28T02:10:52;3.90;99.90
24148;DHT22;12309;51.450;-2.624;2023-02-28T02:30:54;3.80;99.90
24148;DHT22;12309;51.450;-2.624;2023-02-28T02:39:17;3.90;99.90
24148;DHT22;12309;51.450;-2.624;2023-02-28T02:41:49;4.00;99.90
24148;DHT22;12309;51.450;-2.624;2023-02-28T02:44:27;4.10;99.90
24148;DHT22;12309;51.450;-2.624;2023-02-28T02:46:59;4.10;99.90
24148;DHT22;12309;51.450;-2.624;2023-02-28T02:49:35;4.20;99.90
24148;DHT22;12309;51.450;-2.624;2023-02-28T02:52:08;4.20;99.90
24148;DHT22;12309;51.450;-2.624;2023-02-28T02:54:37;4.20;99.90
24148;DHT22;12309;51.450;-2.624;2023-02-28T02:57:07;4.20;99.90
24148;DHT22;12309;51.450;-2.624;2023-02-28T02:59:36;4.20;99.90
24148;DHT22;12309;51.450;-2.624;2023-02-28T03:02:05;4.10;99.90
24148;DHT22;12309;51.450;-2.624;2023-02-28T03:04:36;4.10;99.90
24148;DHT22;12309;51.450;-2.624;2023-02-28T03:07:03;4.10;99.90
24148;DHT22;12309;51.450;-2.624;2023-02-28T03:09:29;4.10;99.90
24148;DHT22;12309;51.450;-2.624;2023-02-28T03:11:57;4.10;99.90
24148;DHT22;12309;51.450;-2.624;2023-02-28T03:14:51;4.10;99.90
24148;DHT22;12309;51.450;-2.624;2023-02-28T03:21:02;4.20;99.90
24148;DHT22;12309;51.450;-2.624;2023-02-28T03:23:21;4.30;99.90
24148;DHT22;12309;51.450;-2.624;2023-02-28T03:28:43;4.40;99.90
24148;DHT22;12309;51.450;-2.624;2023-02-28T03:33:59;4.50;99.90
24148;DHT22;12309;51.450;-2.624;2023-02-28T03:36:30;4.50;99.90
24148;DHT22;12309;51.450;-2.624;2023-02-28T03:39:06;5.30;99.90
24148;DHT22;12309;51.450;-2.624;2023-02-28T03:41:40;4.60;99.90
24148;DHT22;12309;51.450;-2.624;2023-02-28T03:44:13;4.70;99.90
24148;DHT22;12309;51.450;-2.624;2023-02-28T03:46:44;4.60;99.90
24148;DHT22;12309;51.450;-2.624;2023-02-28T03:49:20;4.50;99.90
24148;DHT22;12309;51.450;-2.624;2023-02-28T03:51:47;4.50;99.90
24148;DHT22;12309;51.450;-2.624;2023-02-28T03:54:19;4.50;99.90
24148;DHT22;12309;51.450;-2.624;2023-02-28T03:57:02;4.50;99.90
24148;DHT22;12309;51.450;-2.624;2023-02-28T03:59:57;4.50;99.90
24148;DHT22;12309;51.450;-2.624;2023-02-28T04:02:25;4.40;99.90
24148;DHT22;12309;51.450;-2.624;2023-02-28T04:04:50;4.30;99.90
24148;DHT22;12309;51.450;-2.624;2023-02-28T04:07:16;4.40;99.90
24148;DHT22;12309;51.450;-2.624;2023-02-28T04:09:42;5.00;99.90
24148;DHT22;12309;51.450;-2.624;2023-02-28T04:12:08;4.70;99.90
24148;DHT22;12309;51.450;-2.624;2023-02-28T04:14:34;4.60;99.90
24148;DHT22;12309;51.450;-2.624;2023-02-28T04:17:00;4.60;99.90
24148;DHT22;12309;51.450;-2.624;2023-02-28T04:19:25;4.60;99.90
24148;DHT22;12309;51.450;-2.624;2023-02-28T04:21:53;4.60;99.90
24148;DHT22;12309;51.450;-2.624;2023-02-28T04:24:24;4.80;99.90
24148;DHT22;12309;51.450;-2.624;2023-02-28T04:26:53;4.80;99.90
24148;DHT22;12309;51.450;-2.624;2023-02-28T04:29:22;4.80;99.90
24148;DHT22;12309;51.450;-2.624;2023-02-28T04:31:48;4.90;99.90
24148;DHT22;12309;51.450;-2.624;2023-02-28T04:34:14;4.90;99.90
24148;DHT22;12309;51.450;-2.624;2023-02-28T04:36:40;5.00;99.90
24148;DHT22;12309;51.450;-2.624;2023-02-28T04:39:05;4.80;99.90
24148;DHT22;12309;51.450;-2.624;2023-02-28T04:41:31;4.90;99.90
24148;DHT22;12309;51.450;-2.624;2023-02-28T04:43:57;4.90;99.90
24148;DHT22;12309;51.450;-2.624;2023-02-28T04:46:23;4.90;99.90
24148;DHT22;12309;51.450;-2.624;2023-02-28T04:48:49;5.30;99.90
24148;DHT22;12309;51.450;-2.624;2023-02-28T04:51:16;5.10;99.90
24148;DHT22;12309;51.450;-2.624;2023-02-28T04:53:42;5.10;99.90
24148;DHT22;12309;51.450;-2.624;2023-02-28T04:56:11;5.10;99.90
24148;DHT22;12309;51.450;-2.624;2023-02-28T04:58:37;5.20;99.90
24148;DHT22;12309;51.450;-2.624;2023-02-28T05:01:05;5.20;99.90
24148;DHT22;12309;51.450;-2.624;2023-02-28T05:03:41;5.20;99.90
24148;DHT22;12309;51.450;-2.624;2023-02-28T05:06:11;5.20;99.90
24148;DHT22;12309;51.450;-2.624;2023-02-28T05:08:37;5.70;99.90
24148;DHT22;12309;51.450;-2.624;2023-02-28T05:11:03;5.30;99.90
24148;DHT22;12309;51.450;-2.624;2023-02-28T05:15:56;5.10;99.90
24148;DHT22;12309;51.450;-2.624;2023-02-28T05:18:21;5.40;99.90
24148;DHT22;12309;51.450;-2.624;2023-02-28T05:20:47;5.30;99.90
24148;DHT22;12309;51.450;-2.624;2023-02-28T05:23:14;5.40;99.90
24148;DHT22;12309;51.450;-2.624;2023-02-28T05:28:07;5.40;99.90
24148;DHT22;12309;51.450;-2.624;2023-02-28T05:30:33;5.40;99.90
24148;DHT22;12309;51.450;-2.624;2023-02-28T05:32:59;5.50;99.90
24148;DHT22;12309;51.450;-2.624;2023-02-28T05:35:25;5.40;99.90
24148;DHT22;12309;51.450;-2.624;2023-02-28T05:40:17;5.40;99.90
24148;DHT22;12309;51.450;-2.624;2023-02-28T05:42:43;5.40;99.90
24148;DHT22;12309;51.450;-2.624;2023-02-28T05:45:09;5.40;99.90
24148;DHT22;12309;51.450;-2.624;2023-02-28T05:47:35;5.50;99.90
24148;DHT22;12309;51.450;-2.624;2023-02-28T05:50:00;5.40;99.90
24148;DHT22;12309;51.450;-2.624;2023-02-28T05:52:27;5.40;99.90
24148;DHT22;12309;51.450;-2.624;2023-02-28T05:54:53;5.30;99.90
24148;DHT22;12309;51.450;-2.624;2023-02-28T05:57:19;5.20;99.90
24148;DHT22;12309;51.450;-2.624;2023-02-28T05:59:44;5.40;99.90
24148;DHT22;12309;51.450;-2.624;2023-02-28T06:02:16;5.40;99.90
24148;DHT22;12309;51.450;-2.624;2023-02-28T06:04:42;5.20;99.90
24148;DHT22;12309;51.450;-2.624;2023-02-28T06:07:08;5.30;99.90
24148;DHT22;12309;51.450;-2.624;2023-02-28T06:09:34;5.30;99.90
24148;DHT22;12309;51.450;-2.624;2023-02-28T06:12:02;5.30;99.90
24148;DHT22;12309;51.450;-2.624;2023-02-28T06:14:35;5.30;99.90
24148;DHT22;12309;51.450;-2.624;2023-02-28T06:17:02;5.20;99.90
24148;DHT22;12309;51.450;-2.624;2023-02-28T06:19:28;5.20;99.90
24148;DHT22;12309;51.450;-2.624;2023-02-28T06:21:56;5.20;99.90
24148;DHT22;12309;51.450;-2.624;2023-02-28T06:24:23;5.10;99.90
24148;DHT22;12309;51.450;-2.624;2023-02-28T06:26:49;5.00;99.90
24148;DHT22;12309;51.450;-2.624;2023-02-28T06:29:15;4.90;99.90
24148;DHT22;12309;51.450;-2.624;2023-02-28T06:34:09;4.80;99.90
24148;DHT22;12309;51.450;-2.624;2023-02-28T06:36:40;4.80;99.90
24148;DHT22;12309;51.450;-2.624;2023-02-28T06:39:06;4.70;99.90
24148;DHT22;12309;51.450;-2.624;2023-02-28T06:41:31;4.70;99.90
24148;DHT22;12309;51.450;-2.624;2023-02-28T06:44:12;4.80;99.90
24148;DHT22;12309;51.450;-2.624;2023-02-28T06:46:39;4.80;99.90
24148;DHT22;12309;51.450;-2.624;2023-02-28T06:49:06;4.80;99.90
24148;DHT22;12309;51.450;-2.624;2023-02-28T06:51:34;4.80;99.90
24148;DHT22;12309;51.450;-2.624;2023-02-28T06:53:59;4.80;99.90
24148;DHT22;12309;51.450;-2.624;2023-02-28T06:56:25;4.90;99.90
24148;DHT22;12309;51.450;-2.624;2023-02-28T06:58:50;4.90;99.90
24148;DHT22;12309;51.450;-2.624;2023-02-28T07:01:18;5.00;99.90
24148;DHT22;12309;51.450;-2.624;2023-02-28T07:03:45;5.00;99.90
24148;DHT22;12309;51.450;-2.624;2023-02-28T07:06:11;5.20;99.90
24148;DHT22;12309;51.450;-2.624;2023-02-28T07:08:37;5.00;99.90
24148;DHT22;12309;51.450;-2.624;2023-02-28T07:11:03;5.20;99.90
24148;DHT22;12309;51.450;-2.624;2023-02-28T07:13:29;5.10;99.90
24148;DHT22;12309;51.450;-2.624;2023-02-28T07:16:00;5.10;99.90
24148;DHT22;12309;51.450;-2.624;2023-02-28T07:18:26;5.30;99.90
24148;DHT22;12309;51.450;-2.624;2023-02-28T07:20:52;6.70;99.90
24148;DHT22;12309;51.450;-2.624;2023-02-28T07:23:18;5.20;99.90
24148;DHT22;12309;51.450;-2.624;2023-02-28T07:25:44;5.30;99.90
24148;DHT22;12309;51.450;-2.624;2023-02-28T07:28:11;5.40;99.90
24148;DHT22;12309;51.450;-2.624;2023-02-28T07:30:37;5.30;99.90
24148;DHT22;12309;51.450;-2.624;2023-02-28T07:33:02;5.40;99.90
24148;DHT22;12309;51.450;-2.624;2023-02-28T07:35:29;5.40;99.90
24148;DHT22;12309;51.450;-2.624;2023-02-28T07:37:55;5.40;99.90
24148;DHT22;12309;51.450;-2.624;2023-02-28T07:40:22;5.40;99.90
24148;DHT22;12309;51.450;-2.624;2023-02-28T07:42:47;5.40;99.90
24148;DHT22;12309;51.450;-2.624;2023-02-28T07:45:13;5.50;99.90
24148;DHT22;12309;51.450;-2.624;2023-02-28T07:47:39;5.60;99.90
24148;DHT22;12309;51.450;-2.624;2023-02-28T07:50:06;5.60;99.90
24148;DHT22;12309;51.450;-2.624;2023-02-28T07:52:32;5.60;99.90
24148;DHT22;12309;51.450;-2.624;2023-02-28T07:54:58;7.30;99.90
24148;DHT22;12309;51.450;-2.624;2023-02-28T07:57:23;5.70;99.90
24148;DHT22;12309;51.450;-2.624;2023-02-28T07:59:49;5.80;99.90
24148;DHT22;12309;51.450;-2.624;2023-02-28T08:02:18;5.80;99.90
24148;DHT22;12309;51.450;-2.624;2023-02-28T08:04:45;5.80;99.90
24148;DHT22;12309;51.450;-2.624;2023-02-28T08:07:12;5.20;99.90
24148;DHT22;12309;51.450;-2.624;2023-02-28T08:09:42;5.80;99.90
24148;DHT22;12309;51.450;-2.624;2023-02-28T08:12:09;5.80;99.90
24148;DHT22;12309;51.450;-2.624;2023-02-28T08:14:35;5.90;99.90
24148;DHT22;12309;51.450;-2.624;2023-02-28T08:17:01;5.90;99.90
24148;DHT22;12309;51.450;-2.624;2023-02-28T08:19:27;6.00;99.90
24148;DHT22;12309;51.450;-2.624;2023-02-28T08:21:54;6.00;99.90
24148;DHT22;12309;51.450;-2.624;2023-02-28T08:24:20;6.10;99.90
24148;DHT22;12309;51.450;-2.624;2023-02-28T08:26:45;6.10;99.90
24148;DHT22;12309;51.450;-2.624;2023-02-28T08:29:11;6.10;99.90
24148;DHT22;12309;51.450;-2.624;2023-02-28T08:31:36;6.20;99.90
24148;DHT22;12309;51.450;-2.624;2023-02-28T08:34:07;6.30;99.90
24148;DHT22;12309;51.450;-2.624;2023-02-28T08:36:33;6.30;99.90
24148;DHT22;12309;51.450;-2.624;2023-02-28T08:38:58;6.40;99.90
24148;DHT22;12309;51.450;-2.624;2023-02-28T08:41:25;6.60;99.90
24148;DHT22;12309;51.450;-2.624;2023-02-28T08:43:51;6.60;99.90
24148;DHT22;12309;51.450;-2.624;2023-02-28T08:46:17;6.50;99.90
24148;DHT22;12309;51.450;-2.624;2023-02-28T08:48:43;6.70;99.90
24148;DHT22;12309;51.450;-2.624;2023-02-28T08:51:12;6.80;99.90
24148;DHT22;12309;51.450;-2.624;2023-02-28T08:53:39;7.00;99.90
24148;DHT22;12309;51.450;-2.624;2023-02-28T08:56:13;7.10;99.90
24148;DHT22;12309;51.450;-2.624;2023-02-28T08:58:39;7.10;99.90
24148;DHT22;12309;51.450;-2.624;2023-02-28T09:01:14;7.10;99.90
24148;DHT22;12309;51.450;-2.624;2023-02-28T09:03:41;7.00;99.90
24148;DHT22;12309;51.450;-2.624;2023-02-28T09:06:08;7.00;99.90
24148;DHT22;12309;51.450;-2.624;2023-02-28T09:08:34;7.00;99.90
24148;DHT22;12309;51.450;-2.624;2023-02-28T09:11:00;7.10;99.90
24148;DHT22;12309;51.450;-2.624;2023-02-28T09:13:27;7.10;99.90
24148;DHT22;12309;51.450;-2.624;2023-02-28T09:15:54;7.10;99.90
24148;DHT22;12309;51.450;-2.624;2023-02-28T09:18:20;7.50;99.90
24148;DHT22;12309;51.450;-2.624;2023-02-28T09:20:46;7.20;99.90
24148;DHT22;12309;51.450;-2.624;2023-02-28T09:23:12;7.30;99.90
24148;DHT22;12309;51.450;-2.624;2023-02-28T09:25:40;7.40;99.90
24148;DHT22;12309;51.450;-2.624;2023-02-28T09:28:10;7.30;99.90
24148;DHT22;12309;51.450;-2.624;2023-02-28T09:30:36;7.30;99.90
24148;DHT22;12309;51.450;-2.624;2023-02-28T09:33:02;7.30;99.90
24148;DHT22;12309;51.450;-2.624;2023-02-28T09:35:28;7.20;99.90
24148;DHT22;12309;51.450;-2.624;2023-02-28T09:37:56;7.30;99.90
24148;DHT22;12309;51.450;-2.624;2023-02-28T09:40:26;7.30;99.90
24148;DHT22;12309;51.450;-2.624;2023-02-28T09:42:54;7.20;99.90
24148;DHT22;12309;51.450;-2.624;2023-02-28T09:45:36;7.30;99.90
24148;DHT22;12309;51.450;-2.624;2023-02-28T09:48:10;7.40;99.90
24148;DHT22;12309;51.450;-2.624;2023-02-28T09:53:10;7.30;99.90
24148;DHT22;12309;51.450;-2.624;2023-02-28T09:55:48;7.40;99.90
24148;DHT22;12309;51.450;-2.624;2023-02-28T10:04:08;6.40;99.90
24148;DHT22;12309;51.450;-2.624;2023-02-28T10:06:46;7.60;99.90
24148;DHT22;12309;51.450;-2.624;2023-02-28T10:09:27;7.60;99.90
24148;DHT22;12309;51.450;-2.624;2023-02-28T10:11:59;7.80;99.90
24148;DHT22;12309;51.450;-2.624;2023-02-28T10:14:29;7.90;99.90
24148;DHT22;12309;51.450;-2.624;2023-02-28T10:16:59;7.90;99.90
24148;DHT22;12309;51.450;-2.624;2023-02-28T10:22:13;7.80;99.90
24148;DHT22;12309;51.450;-2.624;2023-02-28T10:24:45;8.00;99.90
24148;DHT22;12309;51.450;-2.624;2023-02-28T10:30:05;8.00;99.90
24148;DHT22;12309;51.450;-2.624;2023-02-28T10:32:33;8.20;99.90
24148;DHT22;12309;51.450;-2.624;2023-02-28T10:35:17;8.20;99.90
24148;DHT22;12309;51.450;-2.624;2023-02-28T10:37:49;8.30;99.90
24148;DHT22;12309;51.450;-2.624;2023-02-28T10:40:25;8.60;99.90
24148;DHT22;12309;51.450;-2.624;2023-02-28T10:45:40;8.50;99.90
24148;DHT22;12309;51.450;-2.624;2023-02-28T11:01:27;9.00;99.90
24148;DHT22;12309;51.450;-2.624;2023-02-28T11:04:00;9.20;99.90
24148;DHT22;12309;51.450;-2.624;2023-02-28T11:06:29;9.00;99.90
24148;DHT22;12309;51.450;-2.624;2023-02-28T11:11:27;8.90;99.90
24148;DHT22;12309;51.450;-2.624;2023-02-28T11:13:56;9.20;99.90
24148;DHT22;12309;51.450;-2.624;2023-02-28T11:16:32;9.40;99.90
24148;DHT22;12309;51.450;-2.624;2023-02-28T11:18:58;9.40;99.90
24148;DHT22;12309;51.450;-2.624;2023-02-28T11:21:30;9.50;99.90
24148;DHT22;12309;51.450;-2.624;2023-02-28T11:24:05;9.60;99.90
24148;DHT22;12309;51.450;-2.624;2023-02-28T11:26:36;9.60;99.90
24148;DHT22;12309;51.450;-2.624;2023-02-28T11:29:22;9.90;99.90
24148;DHT22;12309;51.450;-2.624;2023-02-28T11:34:36;9.50;99.90
24148;DHT22;12309;51.450;-2.624;2023-02-28T11:37:03;9.30;99.90
24148;DHT22;12309;51.450;-2.624;2023-02-28T11:39:32;9.10;99.90
24148;DHT22;12309;51.450;-2.624;2023-02-28T11:44:58;10.70;99.90
24148;DHT22;12309;51.450;-2.624;2023-02-28T11:54:07;9.20;99.90
24148;DHT22;12309;51.450;-2.624;2023-02-28T12:04:25;11.40;99.90
24148;DHT22;12309;51.450;-2.624;2023-02-28T12:07:04;11.90;99.90
24148;DHT22;12309;51.450;-2.624;2023-02-28T12:15:16;10.80;99.90
24148;DHT22;12309;51.450;-2.624;2023-02-28T12:17:55;10.40;99.90
24148;DHT22;12309;51.450;-2.624;2023-02-28T12:26:06;9.60;99.90
24148;DHT22;12309;51.450;-2.624;2023-02-28T12:28:40;9.70;99.90
24148;DHT22;12309;51.450;-2.624;2023-02-28T12:33:36;9.60;99.90
24148;DHT22;12309;51.450;-2.624;2023-02-28T12:36:13;9.60;99.90
24148;DHT22;12309;51.450;-2.624;2023-02-28T12:39:01;9.70;99.90
24148;DHT22;12309;51.450;-2.624;2023-02-28T12:41:54;9.60;99.90
24148;DHT22;12309;51.450;-2.624;2023-02-28T12:46:56;10.40;99.90
24148;DHT22;12309;51.450;-2.624;2023-02-28T12:49:39;10.20;99.90
24148;DHT22;12309;51.450;-2.624;2023-02-28T12:52:07;10.10;99.90
24148;DHT22;12309;51.450;-2.624;2023-02-28T12:57:25;10.20;99.90
24148;DHT22;12309;51.450;-2.624;2023-02-28T13:00:03;9.90;99.90
24148;DHT22;12309;51.450;-2.624;2023-02-28T13:10:50;9.40;99.90
24148;DHT22;12309;51.450;-2.624;2023-02-28T13:13:22;9.30;99.90
24148;DHT22;12309;51.450;-2.624;2023-02-28T13:18:30;10.20;99.90
24148;DHT22;12309;51.450;-2.624;2023-02-28T13:20:57;10.70;99.90
24148;DHT22;12309;51.450;-2.624;2023-02-28T13:26:06;11.40;99.90
24148;DHT22;12309;51.450;-2.624;2023-02-28T13:31:16;11.10;99.90
24148;DHT22;12309;51.450;-2.624;2023-02-28T13:38:43;10.70;99.90
24148;DHT22;12309;51.450;-2.624;2023-02-28T13:41:40;11.00;99.90
24148;DHT22;12309;51.450;-2.624;2023-02-28T13:44:19;11.00;99.90
24148;DHT22;12309;51.450;-2.624;2023-02-28T13:51:50;11.00;99.90
24148;DHT22;12309;51.450;-2.624;2023-02-28T14:05:42;10.20;99.90
24148;DHT22;12309;51.450;-2.624;2023-02-28T14:08:16;10.20;99.90
24148;DHT22;12309;51.450;-2.624;2023-02-28T14:10:48;10.40;99.90
24148;DHT22;12309;51.450;-2.624;2023-02-28T14:13:41;10.00;99.90
24148;DHT22;12309;51.450;-2.624;2023-02-28T14:16:10;10.10;99.90
24148;DHT22;12309;51.450;-2.624;2023-02-28T14:18:42;10.10;99.90
24148;DHT22;12309;51.450;-2.624;2023-02-28T14:21:32;9.90;99.90
24148;DHT22;12309;51.450;-2.624;2023-02-28T14:37:36;9.50;99.90
24148;DHT22;12309;51.450;-2.624;2023-02-28T14:40:11;9.40;99.90
24148;DHT22;12309;51.450;-2.624;2023-02-28T14:42:37;9.30;99.90
24148;DHT22;12309;51.450;-2.624;2023-02-28T14:45:18;9.30;99.90
24148;DHT22;12309;51.450;-2.624;2023-02-28T14:47:44;9.40;99.90
24148;DHT22;12309;51.450;-2.624;2023-02-28T14:50:24;9.50;99.90
24148;DHT22;12309;51.450;-2.624;2023-02-28T14:52:53;9.70;99.90
24148;DHT22;12309;51.450;-2.624;2023-02-28T14:55:24;9.70;99.90
24148;DHT22;12309;51.450;-2.624;2023-02-28T15:00:32;9.90;99.90
24148;DHT22;12309;51.450;-2.624;2023-02-28T15:03:00;9.80;99.90
24148;DHT22;12309;51.450;-2.624;2023-02-28T15:05:34;12.10;99.90
24148;DHT22;12309;51.450;-2.624;2023-02-28T15:08:14;12.00;99.90
24148;DHT22;12309;51.450;-2.624;2023-02-28T15:10:49;12.50;99.90
24148;DHT22;12309;51.450;-2.624;2023-02-28T15:13:18;13.60;99.90
24148;DHT22;12309;51.450;-2.624;2023-02-28T15:15:52;13.40;99.90
24148;DHT22;12309;51.450;-2.624;2023-02-28T15:20:56;12.10;99.90
24148;DHT22;12309;51.450;-2.624;2023-02-28T15:23:23;11.10;99.90
24148;DHT22;12309;51.450;-2.624;2023-02-28T15:25:49;10.50;99.90
24148;DHT22;12309;51.450;-2.624;2023-02-28T15:28:20;10.40;99.90
24148;DHT22;12309;51.450;-2.624;2023-02-28T15:30:53;10.00;99.90
24148;DHT22;12309;51.450;-2.624;2023-02-28T15:33:20;10.10;99.90
24148;DHT22;12309;51.450;-2.624;2023-02-28T15:35:46;9.90;99.90
24148;DHT22;12309;51.450;-2.624;2023-02-28T15:38:26;9.80;99.90
24148;DHT22;12309;51.450;-2.624;2023-02-28T15:40:54;9.60;99.90
24148;DHT22;12309;51.450;-2.624;2023-02-28T15:43:32;9.60;99.90
24148;DHT22;12309;51.450;-2.624;2023-02-28T15:46:07;11.00;99.90
24148;DHT22;12309;51.450;-2.624;2023-02-28T15:51:36;13.80;99.90
24148;DHT22;12309;51.450;-2.624;2023-02-28T15:54:07;13.60;99.90
24148;DHT22;12309;51.450;-2.624;2023-02-28T15:56:44;14.30;99.90
24148;DHT22;12309;51.450;-2.624;2023-02-28T15:59:17;14.20;99.90
24148;DHT22;12309;51.450;-2.624;2023-02-28T16:01:43;14.00;99.90
24148;DHT22;12309;51.450;-2.624;2023-02-28T16:04:16;14.60;99.90
24148;DHT22;12309;51.450;-2.624;2023-02-28T16:09:15;15.10;99.90
24148;DHT22;12309;51.450;-2.624;2023-02-28T16:11:47;14.70;99.90
24148;DHT22;12309;51.450;-2.624;2023-02-28T16:14:31;14.70;99.90
24148;DHT22;12309;51.450;-2.624;2023-02-28T16:17:48;14.60;99.90
24148;DHT22;12309;51.450;-2.624;2023-02-28T16:19:48;14.30;99.90
24148;DHT22;12309;51.450;-2.624;2023-02-28T16:22:14;14.30;99.90
24148;DHT22;12309;51.450;-2.624;2023-02-28T16:24:39;14.50;99.90
24148;DHT22;12309;51.450;-2.624;2023-02-28T16:27:06;14.40;99.90
24148;DHT22;12309;51.450;-2.624;2023-02-28T16:29:36;14.70;99.90
24148;DHT22;12309;51.450;-2.624;2023-02-28T16:32:04;13.50;99.90
24148;DHT22;12309;51.450;-2.624;2023-02-28T16:34:30;12.60;99.90
24148;DHT22;12309;51.450;-2.624;2023-02-28T16:36:56;11.80;99.90
24148;DHT22;12309;51.450;-2.624;2023-02-28T16:39:22;11.00;99.90
24148;DHT22;12309;51.450;-2.624;2023-02-28T16:41:49;11.10;99.90
24148;DHT22;12309;51.450;-2.624;2023-02-28T16:44:31;10.60;99.90
24148;DHT22;12309;51.450;-2.624;2023-02-28T16:46:59;10.30;99.90
24148;DHT22;12309;51.450;-2.624;2023-02-28T16:49:25;10.20;99.90
24148;DHT22;12309;51.450;-2.624;2023-02-28T16:51:51;10.20;99.90
24148;DHT22;12309;51.450;-2.624;2023-02-28T16:54:16;10.90;99.90
24148;DHT22;12309;51.450;-2.624;2023-02-28T16:56:44;11.20;99.90
24148;DHT22;12309;51.450;-2.624;2023-02-28T16:59:11;11.60;99.90
24148;DHT22;12309;51.450;-2.624;2023-02-28T17:01:37;12.20;99.90
24148;DHT22;12309;51.450;-2.624;2023-02-28T17:04:03;11.80;99.90
24148;DHT22;12309;51.450;-2.624;2023-02-28T17:06:29;11.20;99.90
24148;DHT22;12309;51.450;-2.624;2023-02-28T17:08:56;11.00;99.90
24148;DHT22;12309;51.450;-2.624;2023-02-28T17:11:23;10.60;99.90
24148;DHT22;12309;51.450;-2.624;2023-02-28T17:13:49;10.30;99.90
24148;DHT22;12309;51.450;-2.624;2023-02-28T17:16:29;10.00;99.90
24148;DHT22;12309;51.450;-2.624;2023-02-28T17:18:58;9.80;99.90
24148;DHT22;12309;51.450;-2.624;2023-02-28T17:21:24;9.80;99.90
24148;DHT22;12309;51.450;-2.624;2023-02-28T17:23:50;9.50;99.90
24148;DHT22;12309;51.450;-2.624;2023-02-28T17:26:17;9.30;99.90
24148;DHT22;12309;51.450;-2.624;2023-02-28T17:28:45;9.20;99.90
24148;DHT22;12309;51.450;-2.624;2023-02-28T17:31:11;9.00;99.90
24148;DHT22;12309;51.450;-2.624;2023-02-28T17:33:37;8.90;99.90
24148;DHT22;12309;51.450;-2.624;2023-02-28T17:36:03;8.90;99.90
24148;DHT22;12309;51.450;-2.624;2023-02-28T17:38:29;9.00;99.90
24148;DHT22;12309;51.450;-2.624;2023-02-28T17:40:55;8.60;99.90
24148;DHT22;12309;51.450;-2.624;2023-02-28T17:43:26;8.90;99.90
24148;DHT22;12309;51.450;-2.624;2023-02-28T17:45:53;9.00;99.90
24148;DHT22;12309;51.450;-2.624;2023-02-28T17:48:18;8.70;99.90
24148;DHT22;12309;51.450;-2.624;2023-02-28T17:50:44;10.90;99.90
24148;DHT22;12309;51.450;-2.624;2023-02-28T17:53:10;8.70;99.90
24148;DHT22;12309;51.450;-2.624;2023-02-28T17:55:36;8.70;99.90
24148;DHT22;12309;51.450;-2.624;2023-02-28T17:58:03;8.60;99.90
24148;DHT22;12309;51.450;-2.624;2023-02-28T18:00:29;8.50;99.90
24148;DHT22;12309;51.450;-2.624;2023-02-28T18:02:55;8.50;99.90
24148;DHT22;12309;51.450;-2.624;2023-02-28T18:05:21;8.60;99.90
24148;DHT22;12309;51.450;-2.624;2023-02-28T18:07:46;8.60;99.90
24148;DHT22;12309;51.450;-2.624;2023-02-28T18:10:21;8.60;99.90
24148;DHT22;12309;51.450;-2.624;2023-02-28T18:12:48;8.50;99.90
24148;DHT22;12309;51.450;-2.624;2023-02-28T18:15:15;8.70;99.90
24148;DHT22;12309;51.450;-2.624;2023-02-28T18:17:41;8.50;99.90
24148;DHT22;12309;51.450;-2.624;2023-02-28T18:20:08;8.40;99.90
24148;DHT22;12309;51.450;-2.624;2023-02-28T18:22:35;8.50;99.90
24148;DHT22;12309;51.450;-2.624;2023-02-28T18:25:02;8.60;99.90
24148;DHT22;12309;51.450;-2.624;2023-02-28T18:27:28;8.50;99.90
24148;DHT22;12309;51.450;-2.624;2023-02-28T18:29:53;8.80;99.90
24148;DHT22;12309;51.450;-2.624;2023-02-28T18:32:19;8.70;99.90
24148;DHT22;12309;51.450;-2.624;2023-02-28T18:34:44;8.40;99.90